Redcliffe Ses, Queensland

10:21 AM AEST on September 01, 2015 (GMT +1000)
Mango Hill | | Change Station
CLOSE
Current Station
Personal Weather Station
Location: Mango Hill, QUEENSLAND
Elevation: 62 ft
Nearby Weather Stations

Elev 62 ft 27.22 °S, 153.03 °E | Updated 5 seconds ago

Clear
Clear
78.4 °F
Feels Like 77 °F
N
0.2
Wind Variable Wind from ENE
Gusts 2.5 mph

Today
High -- | Low -- °F
--% Chance of Precip.
Yesterday
High -- | Low -- °F
Precip. -- in
6:01 AM 5:34 PM
Waning Gibbous, 93% visible
Pressure 30.04 in
Visibility -9999.0 miles
Clouds
Heat Index 77 °F
Dew Point 17 °F
Humidity 10%
Rainfall 0.00 in
Snow Depth Not available.
UV 1.0 out of 12
Pollen Not available.
Air Quality Not available.
Flu Activity Not available.
METAR YBBN 010000Z 26007KT 230V300 CAVOK 19/04 Q1017 NOSIG
Pressure 30.04 in
Visibility -9999.0 miles
Clouds
Heat Index 77 °F
Dew Point 17 °F
Humidity 10%
Rainfall 0.00 in
Snow Depth Not available.
UV 1.0 out of 12
Pollen Not available.
Air Quality Not available.
Flu Activity Not available.
METAR YBBN 010000Z 26007KT 230V300 CAVOK 19/04 Q1017 NOSIG

10-Day Weather Forecast

×

Almanac

Astronomy

Sep. 01, 2015 Rise Set
Actual Time
Civil Twilight
Nautical Twilight
Astronomical Twilight
Moon
Length of Visible Light
Length of Day
Tomorrow will be .
, % of the Moon is Illuminated

Today's Extremes

Country Highs Country Lows

Community

WunderPhotos

Upload Photos

1,851,405 photos uploaded!

WunderBlogs® & News

Nearby

Air Quality

  Air Quality AQ Index Pollutant
Not available.

Snow Depth

Station Depth Elevation

Earthquake Activity

City Distance Mag. Time & Date
Minimum magnitude displayed is 2.5.

Coastal Water Temperatures

Place Temperature

Stations

Nearby Weather Stations

Station Location Temp. Windchill Dew Point Humidity Wind Precip. Elev Updated Type